createdAt,value
2018-07-31T00:00:27.115Z,0.00
2018-07-31T00:01:26.995Z,0.00
2018-07-31T00:02:26.994Z,0.00
2018-07-31T00:03:27.010Z,0.00
2018-07-31T00:04:26.873Z,0.00
2018-07-31T00:05:26.875Z,0.00
2018-07-31T00:06:26.874Z,0.00
2018-07-31T00:07:26.754Z,0.00
2018-07-31T00:08:26.753Z,0.00
2018-07-31T00:09:26.752Z,0.00
2018-07-31T00:10:26.676Z,0.00
2018-07-31T00:11:26.633Z,0.00
2018-07-31T00:12:26.632Z,0.00
2018-07-31T00:13:26.513Z,0.00
2018-07-31T00:14:26.513Z,0.00
2018-07-31T00:15:26.511Z,0.00
2018-07-31T00:16:26.395Z,0.00
2018-07-31T00:17:26.390Z,0.00
2018-07-31T00:18:26.392Z,0.00
2018-07-31T00:19:26.391Z,0.00
2018-07-31T00:20:26.272Z,0.00
2018-07-31T00:21:26.277Z,0.00
2018-07-31T00:22:26.274Z,0.00
2018-07-31T00:23:26.157Z,0.00
2018-07-31T00:24:26.150Z,0.00
2018-07-31T00:25:26.150Z,0.00
2018-07-31T00:26:26.033Z,0.00
2018-07-31T00:27:26.035Z,0.00
2018-07-31T00:28:26.030Z,0.00
2018-07-31T00:29:25.912Z,0.00
2018-07-31T00:30:25.908Z,0.00
2018-07-31T00:31:25.909Z,0.00
2018-07-31T00:32:25.787Z,0.00
2018-07-31T00:33:25.792Z,0.00
2018-07-31T00:34:25.789Z,0.00
2018-07-31T00:35:25.672Z,0.00
2018-07-31T00:36:25.668Z,0.00
2018-07-31T00:37:25.667Z,0.00
2018-07-31T00:38:25.546Z,0.00
2018-07-31T00:39:25.546Z,0.00
2018-07-31T00:40:25.547Z,0.00
2018-07-31T00:41:25.873Z,0.00
2018-07-31T00:42:25.429Z,0.00
2018-07-31T00:43:25.428Z,0.00
2018-07-31T00:44:25.305Z,0.00
2018-07-31T00:45:25.308Z,0.00
2018-07-31T00:46:25.306Z,0.00
2018-07-31T00:47:25.265Z,0.00
2018-07-31T00:48:25.187Z,0.00
2018-07-31T00:49:25.185Z,0.00
2018-07-31T00:50:25.185Z,0.00
2018-07-31T00:51:25.064Z,0.00
2018-07-31T00:52:25.063Z,0.00
2018-07-31T00:53:25.063Z,0.00
2018-07-31T00:54:24.943Z,0.00
2018-07-31T00:55:24.942Z,0.00
2018-07-31T00:56:24.942Z,0.00
2018-07-31T00:57:24.822Z,0.00
2018-07-31T00:58:24.824Z,0.00
2018-07-31T00:59:24.821Z,0.00
2018-07-31T01:00:24.702Z,0.00
2018-07-31T01:01:24.702Z,0.00
2018-07-31T01:02:24.703Z,0.00
2018-07-31T01:03:24.583Z,0.00
2018-07-31T01:04:24.580Z,0.00
2018-07-31T01:05:24.582Z,0.00
2018-07-31T01:06:24.463Z,0.00
2018-07-31T01:07:24.460Z,0.00
2018-07-31T01:08:24.460Z,0.00
2018-07-31T01:09:24.339Z,0.00
2018-07-31T01:10:24.339Z,0.00
2018-07-31T01:11:24.342Z,0.00
2018-07-31T01:12:24.219Z,0.00
2018-07-31T01:13:24.217Z,0.00
2018-07-31T01:14:24.218Z,0.00
2018-07-31T01:15:24.100Z,0.00
2018-07-31T01:16:24.099Z,0.00
2018-07-31T01:17:24.097Z,0.00
2018-07-31T01:18:23.991Z,0.00
2018-07-31T01:19:23.979Z,0.00
2018-07-31T01:20:23.978Z,0.00
2018-07-31T01:21:23.977Z,0.00
2018-07-31T01:22:23.856Z,0.00
2018-07-31T01:23:23.855Z,0.00
2018-07-31T01:24:23.901Z,0.00
2018-07-31T01:25:23.737Z,0.00
2018-07-31T01:26:23.737Z,0.00
2018-07-31T01:27:23.737Z,0.00
2018-07-31T01:28:23.617Z,0.00
2018-07-31T01:29:23.616Z,0.00
2018-07-31T01:30:23.615Z,0.00
2018-07-31T01:31:23.495Z,0.00
2018-07-31T01:32:23.498Z,0.00
2018-07-31T01:33:23.494Z,0.00
2018-07-31T01:34:23.374Z,0.00
2018-07-31T01:35:23.373Z,0.00
2018-07-31T01:36:23.373Z,0.00
2018-07-31T01:37:23.253Z,0.00
2018-07-31T01:38:23.253Z,0.00
2018-07-31T01:39:23.256Z,0.00
2018-07-31T01:40:23.143Z,0.00
2018-07-31T01:41:23.131Z,0.00
2018-07-31T01:42:23.133Z,0.00
2018-07-31T01:43:23.012Z,0.00
2018-07-31T01:44:23.012Z,0.00
2018-07-31T01:45:23.010Z,0.00
2018-07-31T01:46:22.899Z,0.00
2018-07-31T01:47:22.897Z,0.00
2018-07-31T01:48:22.892Z,0.00
2018-07-31T01:49:22.771Z,0.00
2018-07-31T01:50:22.769Z,0.00
2018-07-31T01:51:22.773Z,0.00
2018-07-31T01:52:22.649Z,0.00
2018-07-31T01:53:22.649Z,0.00
2018-07-31T01:54:22.648Z,0.00
2018-07-31T01:55:22.531Z,0.00
2018-07-31T01:56:22.530Z,0.00
2018-07-31T01:57:22.528Z,0.00
2018-07-31T01:58:22.486Z,0.00
2018-07-31T01:59:22.410Z,0.00
2018-07-31T02:00:22.408Z,0.00
2018-07-31T02:01:22.409Z,0.00
2018-07-31T02:02:22.290Z,0.00
2018-07-31T02:03:22.290Z,0.00
2018-07-31T02:04:22.290Z,0.00
2018-07-31T02:05:22.175Z,0.00
2018-07-31T02:06:22.256Z,0.00
2018-07-31T02:07:22.170Z,0.00
2018-07-31T02:08:22.051Z,0.00
2018-07-31T02:09:22.046Z,0.00
2018-07-31T02:10:22.048Z,0.00
2018-07-31T02:11:21.929Z,0.00
2018-07-31T02:12:21.925Z,0.00
2018-07-31T02:13:21.925Z,0.00
2018-07-31T02:14:21.812Z,0.00
2018-07-31T02:15:21.883Z,0.00
2018-07-31T02:16:21.807Z,0.00
2018-07-31T02:17:21.738Z,0.00
2018-07-31T02:18:21.684Z,0.00
2018-07-31T02:19:21.683Z,0.00
2018-07-31T02:20:21.565Z,0.00
2018-07-31T02:21:21.567Z,0.00
2018-07-31T02:22:21.563Z,0.00
2018-07-31T02:23:21.444Z,0.00
2018-07-31T02:24:21.444Z,0.00
2018-07-31T02:25:21.443Z,0.00
2018-07-31T02:26:21.322Z,0.00
2018-07-31T02:27:21.322Z,0.00
2018-07-31T02:28:21.461Z,0.00
2018-07-31T02:29:21.202Z,0.00
2018-07-31T02:30:21.206Z,0.00
2018-07-31T02:31:21.202Z,0.00
2018-07-31T02:32:21.084Z,0.00
2018-07-31T02:33:21.081Z,0.00
2018-07-31T02:34:21.083Z,0.00
2018-07-31T02:35:20.960Z,0.00
2018-07-31T02:36:20.962Z,0.00
2018-07-31T02:37:20.961Z,0.00
2018-07-31T02:38:20.840Z,0.00
2018-07-31T02:39:20.841Z,0.00
2018-07-31T02:40:20.841Z,0.00
2018-07-31T02:41:20.800Z,0.00
2018-07-31T02:42:20.722Z,0.00
2018-07-31T02:43:20.718Z,0.00
2018-07-31T02:44:20.676Z,0.00
2018-07-31T02:45:20.601Z,0.00
2018-07-31T02:46:20.598Z,0.00
2018-07-31T02:47:20.600Z,0.00
2018-07-31T02:48:20.480Z,0.00
2018-07-31T02:49:20.477Z,0.00
2018-07-31T02:50:20.476Z,0.00
2018-07-31T02:51:20.356Z,0.00
2018-07-31T02:52:20.393Z,0.00
2018-07-31T02:53:20.357Z,0.00
2018-07-31T02:54:20.238Z,0.00
2018-07-31T02:55:20.238Z,0.00
2018-07-31T02:56:20.238Z,0.00
2018-07-31T02:57:20.116Z,0.00
2018-07-31T02:58:20.185Z,0.00
2018-07-31T02:59:20.114Z,0.00
2018-07-31T03:00:19.998Z,0.00
2018-07-31T03:01:19.998Z,0.00
2018-07-31T03:02:19.996Z,0.00
2018-07-31T03:03:19.873Z,0.00
2018-07-31T03:04:19.874Z,0.00
2018-07-31T03:05:19.874Z,0.00
2018-07-31T03:06:19.754Z,0.00
2018-07-31T03:07:19.754Z,0.00
2018-07-31T03:08:19.763Z,0.00
2018-07-31T03:09:19.634Z,0.00
2018-07-31T03:10:19.633Z,0.00
2018-07-31T03:11:19.632Z,0.00
2018-07-31T03:12:19.512Z,0.00
2018-07-31T03:13:19.512Z,0.00
2018-07-31T03:14:19.512Z,0.00
2018-07-31T03:15:19.391Z,0.00
2018-07-31T03:16:19.396Z,0.00
2018-07-31T03:17:19.394Z,0.00
2018-07-31T03:18:19.271Z,0.00
2018-07-31T03:19:19.272Z,0.00
2018-07-31T03:20:19.272Z,0.00
2018-07-31T03:21:19.150Z,0.00
2018-07-31T03:22:19.154Z,0.00
2018-07-31T03:23:19.149Z,0.00
2018-07-31T03:24:19.029Z,0.00
2018-07-31T03:25:19.029Z,0.00
2018-07-31T03:26:19.028Z,0.00
2018-07-31T03:27:18.907Z,0.00
2018-07-31T03:28:18.917Z,0.00
2018-07-31T03:29:18.908Z,0.00
2018-07-31T03:30:18.788Z,0.00
2018-07-31T03:31:18.790Z,0.00
2018-07-31T03:32:18.787Z,0.00
2018-07-31T03:33:18.669Z,0.00
2018-07-31T03:34:18.667Z,0.00
2018-07-31T03:35:18.669Z,0.00
2018-07-31T03:36:18.549Z,0.00
2018-07-31T03:37:18.546Z,0.00
2018-07-31T03:38:18.548Z,0.00
2018-07-31T03:39:18.427Z,0.00
2018-07-31T03:40:18.424Z,0.00
2018-07-31T03:41:18.425Z,0.00
2018-07-31T03:42:18.309Z,0.00
2018-07-31T03:43:18.306Z,0.00
2018-07-31T03:44:18.303Z,0.00
2018-07-31T03:45:18.184Z,0.00
2018-07-31T03:46:18.186Z,0.00
2018-07-31T03:47:18.186Z,0.00
2018-07-31T03:48:18.064Z,0.00
2018-07-31T03:49:18.066Z,0.00
2018-07-31T03:50:18.067Z,0.00
2018-07-31T03:51:17.944Z,0.00
2018-07-31T03:52:17.943Z,0.00
2018-07-31T03:53:17.941Z,0.00
2018-07-31T03:54:17.824Z,0.00
2018-07-31T03:55:17.820Z,0.00
2018-07-31T03:56:17.867Z,0.00
2018-07-31T03:57:17.706Z,0.00
2018-07-31T03:58:17.702Z,0.00
2018-07-31T03:59:17.704Z,0.00
2018-07-31T04:00:17.582Z,0.00
2018-07-31T04:01:17.582Z,0.00
2018-07-31T04:02:17.582Z,0.00
2018-07-31T04:03:17.459Z,0.00
2018-07-31T04:04:17.459Z,0.00
2018-07-31T04:05:17.460Z,0.00
2018-07-31T04:06:17.341Z,0.00
2018-07-31T04:07:17.338Z,0.00
2018-07-31T04:08:17.344Z,0.00
2018-07-31T04:09:17.339Z,0.00
2018-07-31T04:10:17.335Z,0.00
2018-07-31T04:11:17.227Z,0.00
2018-07-31T04:12:17.294Z,0.00
2018-07-31T04:13:17.184Z,0.00
2018-07-31T04:14:17.194Z,0.00
2018-07-31T04:15:17.201Z,0.00
2018-07-31T04:16:16.977Z,0.00
2018-07-31T04:17:17.036Z,0.00
2018-07-31T04:18:16.976Z,5.63
2018-07-31T04:19:16.858Z,5.63
2018-07-31T04:20:16.859Z,5.63
2018-07-31T04:21:16.857Z,5.63
2018-07-31T04:22:16.742Z,5.63
2018-07-31T04:23:16.737Z,5.63
2018-07-31T04:24:16.736Z,5.63
2018-07-31T04:25:16.619Z,5.63
2018-07-31T04:26:16.616Z,5.63
2018-07-31T04:27:16.614Z,5.63
2018-07-31T04:28:16.498Z,5.63
2018-07-31T04:29:16.496Z,5.63
2018-07-31T04:30:16.495Z,5.63
2018-07-31T04:31:16.374Z,5.63
2018-07-31T04:32:16.374Z,5.63
2018-07-31T04:33:16.376Z,5.63
2018-07-31T04:34:16.253Z,5.63
2018-07-31T04:35:16.261Z,5.63
2018-07-31T04:36:16.349Z,5.63
2018-07-31T04:37:16.136Z,5.63
2018-07-31T04:38:16.132Z,11.25
2018-07-31T04:39:16.134Z,11.25
2018-07-31T04:40:16.014Z,11.25
2018-07-31T04:41:16.019Z,11.25
2018-07-31T04:42:16.038Z,11.25
2018-07-31T04:43:15.903Z,11.25
2018-07-31T04:44:15.891Z,11.25
2018-07-31T04:45:15.892Z,11.25
2018-07-31T04:46:15.774Z,11.25
2018-07-31T04:47:15.772Z,11.25
2018-07-31T04:48:15.773Z,11.25
2018-07-31T04:49:15.660Z,11.25
2018-07-31T04:50:15.655Z,11.25
2018-07-31T04:51:15.651Z,11.25
2018-07-31T04:52:15.533Z,11.25
2018-07-31T04:53:15.532Z,11.25
2018-07-31T04:54:15.532Z,11.25
2018-07-31T04:55:15.408Z,11.25
2018-07-31T04:56:15.410Z,11.25
2018-07-31T04:57:15.407Z,11.25
2018-07-31T04:58:15.288Z,11.25
2018-07-31T04:59:15.287Z,11.25
2018-07-31T05:00:15.288Z,11.25
2018-07-31T05:01:15.171Z,11.25
2018-07-31T05:02:15.167Z,11.25
2018-07-31T05:03:15.173Z,11.25
2018-07-31T05:04:15.071Z,11.25
2018-07-31T05:05:15.049Z,11.25
2018-07-31T05:06:15.047Z,11.25
2018-07-31T05:07:14.925Z,11.25
2018-07-31T05:08:14.925Z,11.25
2018-07-31T05:09:14.927Z,11.25
2018-07-31T05:10:14.808Z,16.88
2018-07-31T05:11:14.806Z,16.88
2018-07-31T05:12:14.805Z,16.88
2018-07-31T05:13:14.686Z,16.88
2018-07-31T05:14:14.689Z,16.88
2018-07-31T05:15:14.686Z,16.88
2018-07-31T05:16:14.565Z,16.88
2018-07-31T05:17:14.565Z,16.88
2018-07-31T05:18:14.597Z,16.88
2018-07-31T05:19:14.443Z,16.88
2018-07-31T05:20:14.445Z,22.50
2018-07-31T05:21:14.444Z,22.50
2018-07-31T05:22:14.327Z,22.50
2018-07-31T05:23:14.321Z,22.50
2018-07-31T05:24:14.323Z,22.50
2018-07-31T05:25:14.210Z,22.50
2018-07-31T05:26:14.201Z,22.50
2018-07-31T05:27:14.202Z,22.50
2018-07-31T05:28:14.084Z,22.50
2018-07-31T05:29:14.083Z,22.50
2018-07-31T05:30:14.081Z,22.50
2018-07-31T05:31:13.961Z,22.50
2018-07-31T05:32:13.965Z,22.50
2018-07-31T05:33:13.960Z,22.50
2018-07-31T05:34:13.839Z,22.50
2018-07-31T05:35:13.840Z,28.13
2018-07-31T05:36:13.839Z,22.50
2018-07-31T05:37:13.723Z,28.13
2018-07-31T05:38:13.723Z,28.13
2018-07-31T05:39:13.722Z,28.13
2018-07-31T05:40:13.599Z,28.13
2018-07-31T05:41:13.599Z,22.50
2018-07-31T05:42:13.598Z,22.50
2018-07-31T05:43:13.478Z,22.50
2018-07-31T05:44:13.477Z,22.50
2018-07-31T05:45:13.479Z,22.50
2018-07-31T05:46:13.417Z,22.50
2018-07-31T05:47:13.359Z,22.50
2018-07-31T05:48:13.359Z,22.50
2018-07-31T05:49:13.236Z,22.50
2018-07-31T05:50:13.237Z,22.50
2018-07-31T05:51:13.238Z,28.13
2018-07-31T05:52:13.116Z,28.13
2018-07-31T05:53:13.118Z,28.13
2018-07-31T05:54:13.117Z,22.50
2018-07-31T05:55:13.001Z,22.50
2018-07-31T05:56:12.994Z,28.13
2018-07-31T05:57:12.999Z,28.13
2018-07-31T05:58:12.875Z,28.13
2018-07-31T05:59:12.875Z,22.50
2018-07-31T06:00:12.874Z,28.13
2018-07-31T06:01:12.756Z,28.13
2018-07-31T06:02:12.753Z,33.75
2018-07-31T06:03:12.753Z,33.75
2018-07-31T06:04:12.633Z,33.75
2018-07-31T06:05:12.713Z,33.75
2018-07-31T06:06:12.633Z,33.75
2018-07-31T06:07:12.591Z,33.75
2018-07-31T06:08:12.516Z,33.75
2018-07-31T06:09:12.513Z,33.75
2018-07-31T06:10:12.471Z,33.75
2018-07-31T06:11:12.436Z,33.75
2018-07-31T06:12:12.392Z,33.75
2018-07-31T06:13:12.993Z,33.75
2018-07-31T06:14:12.273Z,33.75
2018-07-31T06:15:12.308Z,28.13
2018-07-31T06:16:12.276Z,28.13
2018-07-31T06:17:12.153Z,28.13
2018-07-31T06:18:12.151Z,28.13
2018-07-31T06:19:12.151Z,28.13
2018-07-31T06:20:12.056Z,28.13
2018-07-31T06:21:12.032Z,28.13
2018-07-31T06:22:12.029Z,33.75
2018-07-31T06:23:11.909Z,33.75
2018-07-31T06:24:11.908Z,33.75
2018-07-31T06:25:11.914Z,28.13
2018-07-31T06:26:11.788Z,28.13
2018-07-31T06:27:11.789Z,33.75
2018-07-31T06:28:11.827Z,33.75
2018-07-31T06:29:11.667Z,33.75
2018-07-31T06:30:11.667Z,33.75
2018-07-31T06:31:11.666Z,39.38
2018-07-31T06:32:11.552Z,39.38
2018-07-31T06:33:11.547Z,39.38
2018-07-31T06:34:11.545Z,39.38
2018-07-31T06:35:11.424Z,39.38
2018-07-31T06:36:11.426Z,39.38
2018-07-31T06:37:11.425Z,39.38
2018-07-31T06:38:11.308Z,39.38
2018-07-31T06:39:11.304Z,39.38
2018-07-31T06:40:11.305Z,39.38
2018-07-31T06:41:11.262Z,39.38
2018-07-31T06:42:11.194Z,39.38
2018-07-31T06:43:11.191Z,39.38
2018-07-31T06:44:11.188Z,39.38
2018-07-31T06:45:11.064Z,39.38
2018-07-31T06:46:11.066Z,39.38
2018-07-31T06:47:11.063Z,33.75
2018-07-31T06:48:10.944Z,33.75
2018-07-31T06:49:10.951Z,39.38
2018-07-31T06:50:10.943Z,39.38
2018-07-31T06:51:10.820Z,39.38
2018-07-31T06:52:10.821Z,39.38
2018-07-31T06:53:10.821Z,33.75
2018-07-31T06:54:10.708Z,33.75
2018-07-31T06:55:10.710Z,33.75
2018-07-31T06:56:10.703Z,33.75
2018-07-31T06:57:10.585Z,39.38
2018-07-31T06:58:10.580Z,39.38
2018-07-31T06:59:10.587Z,45.00
2018-07-31T07:00:10.463Z,39.38
2018-07-31T07:01:10.461Z,39.38
2018-07-31T07:02:10.514Z,39.38
2018-07-31T07:03:10.343Z,39.38
2018-07-31T07:04:10.338Z,39.38
2018-07-31T07:05:10.341Z,45.00
2018-07-31T07:06:10.334Z,45.00
2018-07-31T07:07:10.219Z,45.00
2018-07-31T07:08:10.219Z,45.00
2018-07-31T07:09:10.244Z,45.00
2018-07-31T07:10:10.099Z,45.00
2018-07-31T07:11:10.098Z,56.25
2018-07-31T07:12:10.096Z,50.63
2018-07-31T07:13:09.978Z,50.63
2018-07-31T07:14:13.777Z,50.63
2018-07-31T07:15:09.980Z,61.88
2018-07-31T07:16:09.860Z,67.50
2018-07-31T07:17:09.858Z,67.50
2018-07-31T07:18:09.856Z,56.25
2018-07-31T07:19:09.815Z,50.63
2018-07-31T07:20:09.734Z,50.63
2018-07-31T07:21:09.738Z,61.88
2018-07-31T07:22:09.694Z,50.63
2018-07-31T07:23:09.614Z,50.63
2018-07-31T07:24:09.613Z,67.50
2018-07-31T07:25:09.578Z,56.25
2018-07-31T07:26:09.494Z,56.25
2018-07-31T07:27:09.499Z,56.25
2018-07-31T07:28:09.494Z,56.25
2018-07-31T07:29:09.373Z,56.25
2018-07-31T07:30:09.375Z,61.88
2018-07-31T07:31:09.372Z,67.50
2018-07-31T07:32:09.253Z,61.88
2018-07-31T07:33:09.253Z,56.25
2018-07-31T07:34:09.256Z,50.63
2018-07-31T07:35:09.136Z,50.63
2018-07-31T07:36:09.135Z,50.63
2018-07-31T07:37:09.135Z,56.25
2018-07-31T07:38:09.011Z,67.50
2018-07-31T07:39:09.017Z,56.25
2018-07-31T07:40:09.043Z,78.75
2018-07-31T07:41:08.893Z,78.75
2018-07-31T07:42:08.889Z,61.88
2018-07-31T07:43:08.907Z,73.13
2018-07-31T07:44:08.889Z,78.75
2018-07-31T07:45:08.769Z,73.13
2018-07-31T07:46:08.770Z,67.50
2018-07-31T07:47:08.769Z,73.13
2018-07-31T07:48:08.649Z,61.88
2018-07-31T07:49:08.647Z,78.75
2018-07-31T07:50:08.648Z,56.25
2018-07-31T07:51:08.529Z,56.25
2018-07-31T07:52:08.526Z,50.63
2018-07-31T07:53:08.529Z,73.13
2018-07-31T07:54:08.493Z,73.13
2018-07-31T07:55:08.408Z,73.13
2018-07-31T07:56:08.405Z,73.13
2018-07-31T07:57:08.405Z,67.50
2018-07-31T07:58:08.284Z,67.50
2018-07-31T07:59:08.298Z,67.50
2018-07-31T08:00:08.288Z,73.13
2018-07-31T08:01:08.165Z,73.13
2018-07-31T08:04:41.762Z,73.13
2018-07-31T08:05:41.768Z,67.50
2018-07-31T08:06:41.763Z,56.25
2018-07-31T08:07:41.762Z,56.25
2018-07-31T08:08:41.647Z,61.88
2018-07-31T08:09:41.777Z,61.88
2018-07-31T08:10:41.642Z,56.25
2018-07-31T08:11:41.523Z,22.50
2018-07-31T08:12:41.526Z,22.50
2018-07-31T08:13:41.521Z,28.13
2018-07-31T08:14:41.402Z,22.50
2018-07-31T08:15:41.403Z,22.50
2018-07-31T08:16:41.404Z,22.50
2018-07-31T08:17:41.280Z,22.50
2018-07-31T08:18:41.286Z,22.50
2018-07-31T08:19:41.283Z,22.50
2018-07-31T08:20:41.281Z,22.50
2018-07-31T08:21:41.241Z,33.75
2018-07-31T08:22:41.264Z,33.75
2018-07-31T08:23:41.162Z,22.50
2018-07-31T08:24:41.029Z,16.88
2018-07-31T08:25:40.988Z,33.75
2018-07-31T08:26:40.948Z,28.13
2018-07-31T08:27:40.950Z,33.75
2018-07-31T08:28:40.877Z,28.13
2018-07-31T08:29:40.839Z,28.13
2018-07-31T08:30:40.801Z,50.63
2018-07-31T08:31:40.767Z,39.38
2018-07-31T08:32:40.730Z,56.25
2018-07-31T08:33:40.707Z,28.13
2018-07-31T08:34:40.655Z,61.88
2018-07-31T08:35:40.619Z,50.63
2018-07-31T08:36:40.584Z,33.75
2018-07-31T08:37:40.547Z,39.38
2018-07-31T08:38:40.510Z,61.88
2018-07-31T08:39:40.503Z,50.63
2018-07-31T08:40:40.439Z,61.88
2018-07-31T08:41:40.412Z,61.88
2018-07-31T08:42:40.373Z,61.88
2018-07-31T08:43:40.329Z,61.88
2018-07-31T08:44:40.295Z,45.00
2018-07-31T08:45:40.275Z,28.13
2018-07-31T08:46:40.224Z,39.38
2018-07-31T08:47:40.193Z,50.63
2018-07-31T08:48:40.168Z,45.00
2018-07-31T08:49:40.161Z,45.00
2018-07-31T08:50:40.100Z,50.63
2018-07-31T08:51:40.047Z,50.63
2018-07-31T08:53:39.970Z,39.38
2018-07-31T08:54:39.950Z,39.38
2018-07-31T08:55:39.940Z,56.25
2018-07-31T08:56:39.867Z,39.38
2018-07-31T08:57:39.832Z,33.75
2018-07-31T08:58:39.801Z,33.75
2018-07-31T08:59:39.757Z,39.38
2018-07-31T09:00:39.723Z,50.63
2018-07-31T09:01:39.688Z,67.50
2018-07-31T09:02:39.693Z,67.50
2018-07-31T09:03:39.615Z,67.50
2018-07-31T09:04:39.577Z,50.63
2018-07-31T09:05:39.549Z,39.38
2018-07-31T09:06:39.546Z,50.63
2018-07-31T09:07:39.516Z,56.25
2018-07-31T09:08:39.538Z,61.88
2018-07-31T09:09:39.407Z,33.75
2018-07-31T09:10:39.365Z,67.50
2018-07-31T09:11:39.332Z,67.50
2018-07-31T09:12:39.295Z,50.63
2018-07-31T09:13:39.273Z,50.63
2018-07-31T09:14:39.238Z,73.13
2018-07-31T09:15:39.193Z,67.50
2018-07-31T09:16:39.151Z,67.50
2018-07-31T09:17:39.118Z,67.50
2018-07-31T09:18:39.082Z,67.50
2018-07-31T09:19:39.052Z,61.88
2018-07-31T09:20:39.017Z,67.50
2018-07-31T09:21:38.985Z,61.88
2018-07-31T09:22:38.941Z,67.50
2018-07-31T09:23:38.907Z,61.88
2018-07-31T09:24:39.019Z,50.63
2018-07-31T09:25:38.837Z,50.63
2018-07-31T09:26:38.804Z,33.75
2018-07-31T09:27:38.767Z,28.13
2018-07-31T09:28:38.754Z,33.75
2018-07-31T09:29:38.722Z,50.63
2018-07-31T09:30:38.697Z,28.13
2018-07-31T09:31:38.640Z,28.13
2018-07-31T09:32:38.604Z,28.13
2018-07-31T09:33:38.559Z,28.13
2018-07-31T09:34:38.538Z,28.13
2018-07-31T09:35:38.490Z,39.38
2018-07-31T09:36:38.582Z,28.13
2018-07-31T09:37:38.420Z,39.38
2018-07-31T09:38:38.387Z,33.75
2018-07-31T09:39:38.369Z,28.13
2018-07-31T09:40:38.319Z,90.00
2018-07-31T09:41:38.282Z,95.63
2018-07-31T09:42:38.307Z,106.88
2018-07-31T09:43:38.214Z,90.00
2018-07-31T09:44:38.180Z,84.38
2018-07-31T09:45:38.150Z,78.75
2018-07-31T09:46:38.112Z,78.75
2018-07-31T09:47:38.077Z,84.38
2018-07-31T09:48:38.061Z,73.13
2018-07-31T09:49:38.005Z,90.00
2018-07-31T09:50:38.032Z,90.00
2018-07-31T09:51:37.939Z,84.38
2018-07-31T09:52:37.911Z,56.25
2018-07-31T09:53:37.868Z,67.50
2018-07-31T09:54:37.835Z,61.88
2018-07-31T09:55:37.798Z,56.25
2018-07-31T09:56:37.764Z,50.63
2018-07-31T09:57:37.728Z,50.63
2018-07-31T09:58:37.695Z,45.00
2018-07-31T09:59:37.666Z,56.25
2018-07-31T10:00:37.635Z,67.50
2018-07-31T10:01:37.590Z,50.63
2018-07-31T10:02:37.563Z,61.88
2018-07-31T10:03:37.522Z,112.50
2018-07-31T10:04:37.488Z,95.63
2018-07-31T10:05:37.452Z,118.13
2018-07-31T10:06:37.422Z,112.50
2018-07-31T10:07:37.380Z,123.75
2018-07-31T10:08:37.348Z,118.13
2018-07-31T10:09:37.311Z,118.13
2018-07-31T10:10:37.277Z,123.75
2018-07-31T10:11:37.243Z,112.50
2018-07-31T10:12:37.207Z,67.50
2018-07-31T10:13:37.175Z,101.25
2018-07-31T10:14:37.140Z,61.88
2018-07-31T10:15:37.106Z,61.88
2018-07-31T10:16:37.070Z,106.88
2018-07-31T10:17:37.042Z,129.38
2018-07-31T10:18:37.000Z,129.38
2018-07-31T10:19:36.966Z,140.63
2018-07-31T10:20:36.931Z,73.13
2018-07-31T10:21:36.902Z,73.13
2018-07-31T10:22:36.863Z,73.13
2018-07-31T10:23:36.828Z,146.25
2018-07-31T10:24:36.916Z,146.25
2018-07-31T10:25:36.759Z,123.75
2018-07-31T10:26:36.739Z,129.38
2018-07-31T10:27:36.692Z,106.88
2018-07-31T10:28:36.657Z,140.63
2018-07-31T10:29:36.620Z,157.50
2018-07-31T10:30:36.597Z,140.63
2018-07-31T10:31:36.554Z,101.25
2018-07-31T10:32:36.536Z,163.13
2018-07-31T10:33:36.483Z,168.75
2018-07-31T10:34:36.456Z,163.13
2018-07-31T10:35:36.417Z,129.38
2018-07-31T10:36:36.412Z,151.88
2018-07-31T10:37:36.437Z,151.88
2018-07-31T10:38:36.318Z,151.88
2018-07-31T10:39:36.303Z,157.50
2018-07-31T10:40:36.264Z,84.38
2018-07-31T10:41:36.214Z,163.13
2018-07-31T10:42:36.180Z,163.13
2018-07-31T10:43:36.180Z,168.75
2018-07-31T10:44:36.115Z,174.38
2018-07-31T10:45:36.090Z,180.00
2018-07-31T10:46:36.062Z,174.38
2018-07-31T10:47:36.017Z,168.75
2018-07-31T10:48:35.980Z,174.38
2018-07-31T10:49:35.949Z,174.38
2018-07-31T10:50:35.965Z,174.38
2018-07-31T10:51:35.882Z,168.75
2018-07-31T10:52:35.849Z,112.50
2018-07-31T10:53:35.812Z,163.13
2018-07-31T10:54:35.781Z,118.13
2018-07-31T10:55:35.752Z,61.88
2018-07-31T10:56:35.714Z,50.63
2018-07-31T10:57:35.682Z,50.63
2018-07-31T10:58:35.776Z,50.63
2018-07-31T10:59:35.634Z,61.88
2018-07-31T11:00:35.583Z,118.13
2018-07-31T11:01:35.552Z,90.00
2018-07-31T11:02:35.517Z,157.50
2018-07-31T11:03:35.483Z,157.50
2018-07-31T11:04:35.451Z,157.50
2018-07-31T11:05:35.417Z,157.50
2018-07-31T11:06:35.521Z,163.13
2018-07-31T11:07:35.352Z,163.13
2018-07-31T11:08:35.319Z,168.75
2018-07-31T11:09:35.286Z,168.75
2018-07-31T11:10:35.256Z,174.38
2018-07-31T11:11:35.224Z,106.88
2018-07-31T11:12:35.188Z,61.88
2018-07-31T11:13:35.156Z,67.50
2018-07-31T11:14:35.121Z,56.25
2018-07-31T11:15:35.088Z,45.00
2018-07-31T11:16:35.069Z,50.63
2018-07-31T11:17:35.028Z,50.63
2018-07-31T11:18:34.993Z,185.63
2018-07-31T11:19:34.958Z,185.63
2018-07-31T11:20:34.924Z,191.25
2018-07-31T11:21:34.894Z,118.13
2018-07-31T11:22:34.862Z,191.25
2018-07-31T11:23:34.823Z,196.88
2018-07-31T11:24:34.792Z,196.88
2018-07-31T11:25:34.760Z,202.50
2018-07-31T11:26:34.723Z,202.50
2018-07-31T11:27:34.752Z,219.38
2018-07-31T11:28:34.660Z,213.75
2018-07-31T11:29:34.632Z,213.75
2018-07-31T11:30:34.596Z,213.75
2018-07-31T11:31:34.558Z,225.00
2018-07-31T11:32:34.562Z,225.00
2018-07-31T11:33:34.492Z,84.38
2018-07-31T11:34:34.466Z,146.25
2018-07-31T11:35:34.428Z,191.25
2018-07-31T11:36:34.405Z,196.88
2018-07-31T11:37:34.362Z,196.88
2018-07-31T11:38:34.382Z,196.88
2018-07-31T11:39:34.299Z,202.50
2018-07-31T11:40:34.270Z,213.75
2018-07-31T11:41:34.231Z,219.38
2018-07-31T11:42:34.201Z,219.38
2018-07-31T11:43:34.177Z,219.38
2018-07-31T11:44:34.144Z,73.13
2018-07-31T11:45:34.106Z,78.75
2018-07-31T11:46:34.070Z,78.75
2018-07-31T11:47:34.039Z,90.00
2018-07-31T11:48:34.006Z,241.88
2018-07-31T11:49:33.974Z,253.13
2018-07-31T11:50:33.951Z,236.25
2018-07-31T11:51:33.910Z,112.50
2018-07-31T11:52:33.882Z,264.38
2018-07-31T11:53:33.860Z,264.38
2018-07-31T11:54:33.814Z,151.88
2018-07-31T11:55:33.786Z,270.00
2018-07-31T11:56:33.748Z,213.75
2018-07-31T11:57:33.717Z,174.38
2018-07-31T11:58:33.684Z,180.00
2018-07-31T11:59:33.652Z,151.88
2018-07-31T12:00:33.622Z,146.25
2018-07-31T12:01:33.589Z,123.75
2018-07-31T12:02:33.564Z,270.00
2018-07-31T12:03:33.527Z,84.38
2018-07-31T12:04:33.498Z,73.13
2018-07-31T12:05:33.460Z,73.13
2018-07-31T12:06:33.430Z,78.75
2018-07-31T12:07:33.399Z,90.00
2018-07-31T12:08:33.364Z,95.63
2018-07-31T12:09:33.334Z,101.25
2018-07-31T12:10:33.307Z,118.13
2018-07-31T12:11:33.321Z,101.25
2018-07-31T12:12:33.239Z,101.25
2018-07-31T12:13:33.210Z,95.63
2018-07-31T12:14:33.177Z,84.38
2018-07-31T12:15:33.143Z,78.75
2018-07-31T12:16:33.109Z,67.50
2018-07-31T12:17:33.078Z,61.88
2018-07-31T12:18:33.050Z,61.88
2018-07-31T12:19:33.014Z,67.50
2018-07-31T12:20:32.984Z,78.75
2018-07-31T12:21:32.948Z,95.63
2018-07-31T12:22:32.917Z,95.63
2018-07-31T12:23:32.888Z,84.38
2018-07-31T12:24:32.852Z,78.75
2018-07-31T12:25:32.824Z,73.13
2018-07-31T12:26:32.787Z,67.50
2018-07-31T12:27:32.759Z,67.50
2018-07-31T12:28:32.721Z,67.50
2018-07-31T12:29:32.688Z,78.75
2018-07-31T12:30:32.655Z,90.00
2018-07-31T12:31:32.624Z,95.63
2018-07-31T12:32:32.593Z,106.88
2018-07-31T12:33:32.563Z,106.88
2018-07-31T12:34:32.525Z,112.50
2018-07-31T12:35:32.491Z,101.25
2018-07-31T12:36:32.464Z,135.00
2018-07-31T12:37:32.424Z,106.88
2018-07-31T12:38:32.417Z,112.50
2018-07-31T12:39:32.358Z,213.75
2018-07-31T12:40:32.332Z,90.00
2018-07-31T12:41:32.301Z,78.75
2018-07-31T12:42:32.299Z,78.75
2018-07-31T12:43:32.298Z,84.38
2018-07-31T12:44:32.309Z,84.38
2018-07-31T12:45:32.246Z,90.00
2018-07-31T12:46:32.219Z,90.00
2018-07-31T12:47:32.115Z,95.63
2018-07-31T12:48:32.086Z,405.00
2018-07-31T12:49:32.030Z,388.13
2018-07-31T12:50:31.997Z,106.88
2018-07-31T12:51:31.966Z,118.13
2018-07-31T12:52:31.934Z,433.13
2018-07-31T12:53:31.900Z,416.25
2018-07-31T12:54:31.861Z,416.25
2018-07-31T12:55:31.826Z,427.50
2018-07-31T12:56:31.795Z,427.50
2018-07-31T12:57:31.763Z,427.50
2018-07-31T12:58:31.728Z,129.38
2018-07-31T12:59:31.700Z,95.63
2018-07-31T13:00:31.663Z,112.50